sensor_id;sensor_type;location;lat;lon;timestamp;temperature;humidity
37806;DHT22;25082;50.870;0.022;2023-05-10T00:00:32;18.50;72.00
37806;DHT22;25082;50.870;0.022;2023-05-10T00:02:58;18.50;71.90
37806;DHT22;25082;50.870;0.022;2023-05-10T00:05:24;18.50;72.00
37806;DHT22;25082;50.870;0.022;2023-05-10T00:07:49;18.50;71.90
37806;DHT22;25082;50.870;0.022;2023-05-10T00:10:15;18.50;71.90
37806;DHT22;25082;50.870;0.022;2023-05-10T00:12:40;18.50;71.90
37806;DHT22;25082;50.870;0.022;2023-05-10T00:15:06;18.50;71.90
37806;DHT22;25082;50.870;0.022;2023-05-10T00:17:32;18.50;71.90
37806;DHT22;25082;50.870;0.022;2023-05-10T00:19:58;18.40;71.80
37806;DHT22;25082;50.870;0.022;2023-05-10T00:22:23;18.50;71.90
37806;DHT22;25082;50.870;0.022;2023-05-10T00:24:49;18.50;71.90
37806;DHT22;25082;50.870;0.022;2023-05-10T00:27:14;18.50;71.90
37806;DHT22;25082;50.870;0.022;2023-05-10T00:29:40;18.50;71.80
37806;DHT22;25082;50.870;0.022;2023-05-10T00:32:06;18.50;71.90
37806;DHT22;25082;50.870;0.022;2023-05-10T00:34:31;18.50;71.80
37806;DHT22;25082;50.870;0.022;2023-05-10T00:36:57;18.50;71.90
37806;DHT22;25082;50.870;0.022;2023-05-10T00:39:23;18.40;71.80
37806;DHT22;25082;50.870;0.022;2023-05-10T00:41:48;18.50;71.80
37806;DHT22;25082;50.870;0.022;2023-05-10T00:44:14;18.40;71.70
37806;DHT22;25082;50.870;0.022;2023-05-10T00:46:39;18.50;71.70
37806;DHT22;25082;50.870;0.022;2023-05-10T00:49:05;18.40;71.80
37806;DHT22;25082;50.870;0.022;2023-05-10T00:51:31;18.40;71.70
37806;DHT22;25082;50.870;0.022;2023-05-10T00:53:57;18.40;71.70
37806;DHT22;25082;50.870;0.022;2023-05-10T00:56:23;18.40;71.70
37806;DHT22;25082;50.870;0.022;2023-05-10T00:58:50;18.40;71.70
37806;DHT22;25082;50.870;0.022;2023-05-10T01:01:15;18.40;71.60
37806;DHT22;25082;50.870;0.022;2023-05-10T01:03:41;18.40;71.70
37806;DHT22;25082;50.870;0.022;2023-05-10T01:06:07;18.40;71.60
37806;DHT22;25082;50.870;0.022;2023-05-10T01:08:32;18.40;71.70
37806;DHT22;25082;50.870;0.022;2023-05-10T01:10:58;18.40;71.70
37806;DHT22;25082;50.870;0.022;2023-05-10T01:13:30;18.40;71.60
37806;DHT22;25082;50.870;0.022;2023-05-10T01:15:57;18.40;71.70
37806;DHT22;25082;50.870;0.022;2023-05-10T01:18:23;18.40;71.70
37806;DHT22;25082;50.870;0.022;2023-05-10T01:20:48;18.40;71.70
37806;DHT22;25082;50.870;0.022;2023-05-10T01:26:00;18.40;71.70
37806;DHT22;25082;50.870;0.022;2023-05-10T01:31:17;18.40;71.70
37806;DHT22;25082;50.870;0.022;2023-05-10T01:33:59;18.30;72.20
37806;DHT22;25082;50.870;0.022;2023-05-10T01:36:31;18.30;71.60
37806;DHT22;25082;50.870;0.022;2023-05-10T01:44:14;18.30;72.20
37806;DHT22;25082;50.870;0.022;2023-05-10T01:46:42;18.40;71.60
37806;DHT22;25082;50.870;0.022;2023-05-10T01:49:08;18.30;71.50
37806;DHT22;25082;50.870;0.022;2023-05-10T01:51:42;18.30;71.50
37806;DHT22;25082;50.870;0.022;2023-05-10T01:54:10;18.30;71.60
37806;DHT22;25082;50.870;0.022;2023-05-10T01:56:37;18.30;71.60
37806;DHT22;25082;50.870;0.022;2023-05-10T01:59:05;18.30;71.60
37806;DHT22;25082;50.870;0.022;2023-05-10T02:01:31;18.30;71.60
37806;DHT22;25082;50.870;0.022;2023-05-10T02:03:57;18.30;71.60
37806;DHT22;25082;50.870;0.022;2023-05-10T02:06:23;18.30;71.60
37806;DHT22;25082;50.870;0.022;2023-05-10T02:08:49;18.30;71.60
37806;DHT22;25082;50.870;0.022;2023-05-10T02:11:15;18.30;71.60
37806;DHT22;25082;50.870;0.022;2023-05-10T02:13:42;18.30;71.60
37806;DHT22;25082;50.870;0.022;2023-05-10T02:16:08;18.30;71.70
37806;DHT22;25082;50.870;0.022;2023-05-10T02:18:34;18.30;71.60
37806;DHT22;25082;50.870;0.022;2023-05-10T02:21:02;18.30;71.60
37806;DHT22;25082;50.870;0.022;2023-05-10T02:23:28;18.30;71.60
37806;DHT22;25082;50.870;0.022;2023-05-10T02:25:53;18.30;71.70
37806;DHT22;25082;50.870;0.022;2023-05-10T02:28:20;18.30;71.70
37806;DHT22;25082;50.870;0.022;2023-05-10T02:30:46;18.30;71.60
37806;DHT22;25082;50.870;0.022;2023-05-10T02:33:12;18.30;71.60
37806;DHT22;25082;50.870;0.022;2023-05-10T02:35:38;18.30;71.60
37806;DHT22;25082;50.870;0.022;2023-05-10T02:38:04;18.30;71.60
37806;DHT22;25082;50.870;0.022;2023-05-10T02:40:31;18.30;71.60
37806;DHT22;25082;50.870;0.022;2023-05-10T02:42:57;18.30;71.60
37806;DHT22;25082;50.870;0.022;2023-05-10T02:45:25;18.30;71.60
37806;DHT22;25082;50.870;0.022;2023-05-10T02:47:53;18.30;71.60
37806;DHT22;25082;50.870;0.022;2023-05-10T02:50:19;18.30;71.60
37806;DHT22;25082;50.870;0.022;2023-05-10T02:52:50;18.20;71.50
37806;DHT22;25082;50.870;0.022;2023-05-10T02:55:17;18.20;71.50
37806;DHT22;25082;50.870;0.022;2023-05-10T02:58:17;18.20;71.50
37806;DHT22;25082;50.870;0.022;2023-05-10T03:00:36;18.30;71.70
37806;DHT22;25082;50.870;0.022;2023-05-10T03:03:01;18.20;71.50
37806;DHT22;25082;50.870;0.022;2023-05-10T03:05:27;18.20;71.60
37806;DHT22;25082;50.870;0.022;2023-05-10T03:07:53;18.20;71.50
37806;DHT22;25082;50.870;0.022;2023-05-10T03:10:19;18.20;71.50
37806;DHT22;25082;50.870;0.022;2023-05-10T03:12:55;18.20;71.50
37806;DHT22;25082;50.870;0.022;2023-05-10T03:15:31;18.20;71.60
37806;DHT22;25082;50.870;0.022;2023-05-10T03:20:46;18.20;72.10
37806;DHT22;25082;50.870;0.022;2023-05-10T03:25:44;18.20;71.50
37806;DHT22;25082;50.870;0.022;2023-05-10T03:28:11;18.20;71.50
37806;DHT22;25082;50.870;0.022;2023-05-10T03:30:36;18.20;71.50
37806;DHT22;25082;50.870;0.022;2023-05-10T03:33:05;18.20;71.50
37806;DHT22;25082;50.870;0.022;2023-05-10T03:35:31;18.20;71.50
37806;DHT22;25082;50.870;0.022;2023-05-10T03:37:57;18.20;71.50
37806;DHT22;25082;50.870;0.022;2023-05-10T03:40:22;18.20;71.50
37806;DHT22;25082;50.870;0.022;2023-05-10T03:42:49;18.20;71.50
37806;DHT22;25082;50.870;0.022;2023-05-10T03:45:14;18.20;71.50
37806;DHT22;25082;50.870;0.022;2023-05-10T03:47:40;18.20;71.50
37806;DHT22;25082;50.870;0.022;2023-05-10T03:50:06;18.20;71.50
37806;DHT22;25082;50.870;0.022;2023-05-10T03:52:31;18.20;71.50
37806;DHT22;25082;50.870;0.022;2023-05-10T03:54:57;18.20;71.50
37806;DHT22;25082;50.870;0.022;2023-05-10T03:57:23;18.10;71.50
37806;DHT22;25082;50.870;0.022;2023-05-10T03:59:48;18.20;71.50
37806;DHT22;25082;50.870;0.022;2023-05-10T04:02:14;18.10;71.50
37806;DHT22;25082;50.870;0.022;2023-05-10T04:04:39;18.20;71.60
37806;DHT22;25082;50.870;0.022;2023-05-10T04:07:05;18.10;71.50
37806;DHT22;25082;50.870;0.022;2023-05-10T04:09:31;18.10;71.50
37806;DHT22;25082;50.870;0.022;2023-05-10T04:11:56;18.10;71.50
37806;DHT22;25082;50.870;0.022;2023-05-10T04:14:23;18.10;71.50
37806;DHT22;25082;50.870;0.022;2023-05-10T04:16:49;18.10;71.50
37806;DHT22;25082;50.870;0.022;2023-05-10T04:19:14;18.10;71.50
37806;DHT22;25082;50.870;0.022;2023-05-10T04:21:40;18.10;71.50
37806;DHT22;25082;50.870;0.022;2023-05-10T04:24:06;18.10;71.60
37806;DHT22;25082;50.870;0.022;2023-05-10T04:26:31;18.10;71.50
37806;DHT22;25082;50.870;0.022;2023-05-10T04:28:57;18.10;71.50
37806;DHT22;25082;50.870;0.022;2023-05-10T04:31:22;18.10;71.50
37806;DHT22;25082;50.870;0.022;2023-05-10T04:33:48;18.10;71.50
37806;DHT22;25082;50.870;0.022;2023-05-10T04:36:13;18.10;71.50
37806;DHT22;25082;50.870;0.022;2023-05-10T04:38:39;18.10;71.50
37806;DHT22;25082;50.870;0.022;2023-05-10T04:41:05;18.10;71.50
37806;DHT22;25082;50.870;0.022;2023-05-10T04:43:31;18.10;71.50
37806;DHT22;25082;50.870;0.022;2023-05-10T04:45:57;18.10;71.50
37806;DHT22;25082;50.870;0.022;2023-05-10T04:48:22;18.10;71.50
37806;DHT22;25082;50.870;0.022;2023-05-10T04:50:48;18.10;71.50
37806;DHT22;25082;50.870;0.022;2023-05-10T04:53:13;18.10;71.50
37806;DHT22;25082;50.870;0.022;2023-05-10T04:55:39;18.10;71.50
37806;DHT22;25082;50.870;0.022;2023-05-10T04:58:05;18.10;71.50
37806;DHT22;25082;50.870;0.022;2023-05-10T05:00:30;18.10;71.50
37806;DHT22;25082;50.870;0.022;2023-05-10T05:02:56;18.10;71.50
37806;DHT22;25082;50.870;0.022;2023-05-10T05:05:21;18.10;71.50
37806;DHT22;25082;50.870;0.022;2023-05-10T05:07:47;18.10;71.50
37806;DHT22;25082;50.870;0.022;2023-05-10T05:10:12;18.10;71.50
37806;DHT22;25082;50.870;0.022;2023-05-10T05:12:38;18.10;71.50
37806;DHT22;25082;50.870;0.022;2023-05-10T05:15:03;18.10;71.50
37806;DHT22;25082;50.870;0.022;2023-05-10T05:17:29;18.10;71.50
37806;DHT22;25082;50.870;0.022;2023-05-10T05:19:55;18.00;71.40
37806;DHT22;25082;50.870;0.022;2023-05-10T05:22:21;18.10;71.50
37806;DHT22;25082;50.870;0.022;2023-05-10T05:24:53;18.10;71.50
37806;DHT22;25082;50.870;0.022;2023-05-10T05:27:18;18.00;71.50
37806;DHT22;25082;50.870;0.022;2023-05-10T05:29:46;18.00;71.40
37806;DHT22;25082;50.870;0.022;2023-05-10T05:32:11;18.00;71.40
37806;DHT22;25082;50.870;0.022;2023-05-10T05:34:37;18.00;71.40
37806;DHT22;25082;50.870;0.022;2023-05-10T05:37:03;18.00;71.40
37806;DHT22;25082;50.870;0.022;2023-05-10T05:39:28;18.10;71.40
37806;DHT22;25082;50.870;0.022;2023-05-10T05:41:54;18.00;71.40
37806;DHT22;25082;50.870;0.022;2023-05-10T05:44:20;18.10;71.50
37806;DHT22;25082;50.870;0.022;2023-05-10T05:46:45;18.00;71.40
37806;DHT22;25082;50.870;0.022;2023-05-10T05:49:11;18.00;71.40
37806;DHT22;25082;50.870;0.022;2023-05-10T05:51:37;18.00;71.40
37806;DHT22;25082;50.870;0.022;2023-05-10T05:54:03;18.00;71.40
37806;DHT22;25082;50.870;0.022;2023-05-10T05:56:29;18.00;71.40
37806;DHT22;25082;50.870;0.022;2023-05-10T05:58:55;18.00;71.40
37806;DHT22;25082;50.870;0.022;2023-05-10T06:01:20;18.00;71.40
37806;DHT22;25082;50.870;0.022;2023-05-10T06:03:46;18.00;71.40
37806;DHT22;25082;50.870;0.022;2023-05-10T06:06:12;18.00;71.40
37806;DHT22;25082;50.870;0.022;2023-05-10T06:08:37;18.00;71.30
37806;DHT22;25082;50.870;0.022;2023-05-10T06:11:03;18.00;71.30
37806;DHT22;25082;50.870;0.022;2023-05-10T06:13:29;18.00;71.30
37806;DHT22;25082;50.870;0.022;2023-05-10T06:16:00;18.10;71.30
37806;DHT22;25082;50.870;0.022;2023-05-10T06:18:26;18.10;71.20
37806;DHT22;25082;50.870;0.022;2023-05-10T06:20:52;18.10;71.20
37806;DHT22;25082;50.870;0.022;2023-05-10T06:23:17;18.10;71.20
37806;DHT22;25082;50.870;0.022;2023-05-10T06:25:43;18.10;71.20
37806;DHT22;25082;50.870;0.022;2023-05-10T06:28:09;18.20;71.20
37806;DHT22;25082;50.870;0.022;2023-05-10T06:30:35;18.10;71.20
37806;DHT22;25082;50.870;0.022;2023-05-10T06:33:01;18.20;71.30
37806;DHT22;25082;50.870;0.022;2023-05-10T06:35:27;18.20;71.30
37806;DHT22;25082;50.870;0.022;2023-05-10T06:37:53;18.20;71.30
37806;DHT22;25082;50.870;0.022;2023-05-10T06:40:18;18.20;71.30
37806;DHT22;25082;50.870;0.022;2023-05-10T06:42:45;18.20;71.30
37806;DHT22;25082;50.870;0.022;2023-05-10T06:45:11;18.20;71.30
37806;DHT22;25082;50.870;0.022;2023-05-10T06:47:37;18.30;71.40
37806;DHT22;25082;50.870;0.022;2023-05-10T06:50:03;18.20;71.30
37806;DHT22;25082;50.870;0.022;2023-05-10T06:52:29;18.30;71.40
37806;DHT22;25082;50.870;0.022;2023-05-10T06:54:54;18.30;71.40
37806;DHT22;25082;50.870;0.022;2023-05-10T06:57:20;18.30;71.40
37806;DHT22;25082;50.870;0.022;2023-05-10T06:59:45;18.30;71.40
37806;DHT22;25082;50.870;0.022;2023-05-10T07:02:11;18.30;71.40
37806;DHT22;25082;50.870;0.022;2023-05-10T07:04:37;18.30;71.40
37806;DHT22;25082;50.870;0.022;2023-05-10T07:07:03;18.30;71.40
37806;DHT22;25082;50.870;0.022;2023-05-10T07:09:29;18.30;71.40
37806;DHT22;25082;50.870;0.022;2023-05-10T07:11:55;18.30;71.40
37806;DHT22;25082;50.870;0.022;2023-05-10T07:14:22;18.30;71.50
37806;DHT22;25082;50.870;0.022;2023-05-10T07:16:48;18.30;71.50
37806;DHT22;25082;50.870;0.022;2023-05-10T07:19:13;18.30;71.50
37806;DHT22;25082;50.870;0.022;2023-05-10T07:21:39;18.30;71.50
37806;DHT22;25082;50.870;0.022;2023-05-10T07:24:07;18.30;71.50
37806;DHT22;25082;50.870;0.022;2023-05-10T07:26:33;18.30;72.10
37806;DHT22;25082;50.870;0.022;2023-05-10T07:28:59;18.40;71.60
37806;DHT22;25082;50.870;0.022;2023-05-10T07:31:24;18.40;71.60
37806;DHT22;25082;50.870;0.022;2023-05-10T07:33:50;18.40;71.60
37806;DHT22;25082;50.870;0.022;2023-05-10T07:36:15;18.40;71.60
37806;DHT22;25082;50.870;0.022;2023-05-10T07:38:41;18.40;71.60
37806;DHT22;25082;50.870;0.022;2023-05-10T07:41:06;18.40;71.60
37806;DHT22;25082;50.870;0.022;2023-05-10T07:43:32;18.40;71.60
37806;DHT22;25082;50.870;0.022;2023-05-10T07:45:57;18.40;71.60
37806;DHT22;25082;50.870;0.022;2023-05-10T07:48:25;18.40;71.70
37806;DHT22;25082;50.870;0.022;2023-05-10T07:50:51;18.40;71.70
37806;DHT22;25082;50.870;0.022;2023-05-10T07:53:16;18.40;71.70
37806;DHT22;25082;50.870;0.022;2023-05-10T07:55:43;18.50;71.70
37806;DHT22;25082;50.870;0.022;2023-05-10T07:58:09;18.50;71.70
37806;DHT22;25082;50.870;0.022;2023-05-10T08:00:34;18.50;71.70
37806;DHT22;25082;50.870;0.022;2023-05-10T08:03:00;18.50;71.70
37806;DHT22;25082;50.870;0.022;2023-05-10T08:05:26;18.50;71.70
37806;DHT22;25082;50.870;0.022;2023-05-10T08:07:51;18.50;71.70
37806;DHT22;25082;50.870;0.022;2023-05-10T08:10:17;18.50;71.70
37806;DHT22;25082;50.870;0.022;2023-05-10T08:12:42;18.50;71.70
37806;DHT22;25082;50.870;0.022;2023-05-10T08:15:08;18.50;71.70
37806;DHT22;25082;50.870;0.022;2023-05-10T08:17:34;18.50;71.70
37806;DHT22;25082;50.870;0.022;2023-05-10T08:19:59;18.60;71.70
37806;DHT22;25082;50.870;0.022;2023-05-10T08:22:25;18.60;71.70
37806;DHT22;25082;50.870;0.022;2023-05-10T08:24:51;18.60;71.70
37806;DHT22;25082;50.870;0.022;2023-05-10T08:27:17;18.60;71.70
37806;DHT22;25082;50.870;0.022;2023-05-10T08:29:42;18.60;71.70
37806;DHT22;25082;50.870;0.022;2023-05-10T08:32:08;18.60;71.70
37806;DHT22;25082;50.870;0.022;2023-05-10T08:34:33;18.60;71.70
37806;DHT22;25082;50.870;0.022;2023-05-10T08:36:59;18.60;71.70
37806;DHT22;25082;50.870;0.022;2023-05-10T08:39:25;18.60;71.70
37806;DHT22;25082;50.870;0.022;2023-05-10T08:41:51;18.60;71.70
37806;DHT22;25082;50.870;0.022;2023-05-10T08:44:16;18.60;71.70
37806;DHT22;25082;50.870;0.022;2023-05-10T08:46:44;18.60;71.80
37806;DHT22;25082;50.870;0.022;2023-05-10T08:49:12;18.60;71.80
37806;DHT22;25082;50.870;0.022;2023-05-10T08:51:40;18.70;71.90
37806;DHT22;25082;50.870;0.022;2023-05-10T08:54:06;18.70;71.80
37806;DHT22;25082;50.870;0.022;2023-05-10T08:56:31;18.70;71.80
37806;DHT22;25082;50.870;0.022;2023-05-10T08:58:57;18.70;71.80
37806;DHT22;25082;50.870;0.022;2023-05-10T09:01:23;18.70;71.80
37806;DHT22;25082;50.870;0.022;2023-05-10T09:03:49;18.70;71.80
37806;DHT22;25082;50.870;0.022;2023-05-10T09:06:15;18.70;71.80
37806;DHT22;25082;50.870;0.022;2023-05-10T09:08:41;18.70;71.80
37806;DHT22;25082;50.870;0.022;2023-05-10T09:11:08;18.70;71.70
37806;DHT22;25082;50.870;0.022;2023-05-10T09:13:34;18.70;71.70
37806;DHT22;25082;50.870;0.022;2023-05-10T09:16:00;18.80;72.00
37806;DHT22;25082;50.870;0.022;2023-05-10T09:18:26;18.80;72.00
37806;DHT22;25082;50.870;0.022;2023-05-10T09:20:51;18.80;72.00
37806;DHT22;25082;50.870;0.022;2023-05-10T09:23:17;18.80;72.10
37806;DHT22;25082;50.870;0.022;2023-05-10T09:25:42;18.80;72.20
37806;DHT22;25082;50.870;0.022;2023-05-10T09:28:08;18.80;72.30
37806;DHT22;25082;50.870;0.022;2023-05-10T09:30:35;18.80;72.40
37806;DHT22;25082;50.870;0.022;2023-05-10T09:33:01;18.80;72.40
37806;DHT22;25082;50.870;0.022;2023-05-10T09:35:27;18.80;72.50
37806;DHT22;25082;50.870;0.022;2023-05-10T09:37:54;18.80;72.60
37806;DHT22;25082;50.870;0.022;2023-05-10T09:40:21;18.80;72.60
37806;DHT22;25082;50.870;0.022;2023-05-10T09:45:22;18.80;72.70
37806;DHT22;25082;50.870;0.022;2023-05-10T09:47:48;18.90;72.70
37806;DHT22;25082;50.870;0.022;2023-05-10T09:50:13;18.90;72.60
37806;DHT22;25082;50.870;0.022;2023-05-10T09:52:46;18.90;72.50
37806;DHT22;25082;50.870;0.022;2023-05-10T09:55:12;18.90;72.50
37806;DHT22;25082;50.870;0.022;2023-05-10T09:57:38;18.90;72.50
37806;DHT22;25082;50.870;0.022;2023-05-10T10:00:04;18.90;72.60
37806;DHT22;25082;50.870;0.022;2023-05-10T10:02:30;18.90;72.70
37806;DHT22;25082;50.870;0.022;2023-05-10T10:04:56;18.90;72.80
37806;DHT22;25082;50.870;0.022;2023-05-10T10:07:22;18.90;72.80
37806;DHT22;25082;50.870;0.022;2023-05-10T10:09:49;18.90;72.80
37806;DHT22;25082;50.870;0.022;2023-05-10T10:12:15;19.00;72.90
37806;DHT22;25082;50.870;0.022;2023-05-10T10:14:41;19.00;72.80
37806;DHT22;25082;50.870;0.022;2023-05-10T10:17:08;19.00;72.70
37806;DHT22;25082;50.870;0.022;2023-05-10T10:19:34;19.00;72.80
37806;DHT22;25082;50.870;0.022;2023-05-10T10:22:00;19.00;72.80
37806;DHT22;25082;50.870;0.022;2023-05-10T10:24:26;19.00;72.90
37806;DHT22;25082;50.870;0.022;2023-05-10T10:26:52;19.00;72.90
37806;DHT22;25082;50.870;0.022;2023-05-10T10:34:27;19.10;73.00
37806;DHT22;25082;50.870;0.022;2023-05-10T10:36:54;19.00;72.90
37806;DHT22;25082;50.870;0.022;2023-05-10T10:39:19;19.00;72.80
37806;DHT22;25082;50.870;0.022;2023-05-10T10:41:55;19.00;73.10
37806;DHT22;25082;50.870;0.022;2023-05-10T10:49:50;19.10;72.60
37806;DHT22;25082;50.870;0.022;2023-05-10T10:52:24;19.10;72.00
37806;DHT22;25082;50.870;0.022;2023-05-10T10:55:06;19.00;70.70
37806;DHT22;25082;50.870;0.022;2023-05-10T11:02:46;19.00;71.40
37806;DHT22;25082;50.870;0.022;2023-05-10T11:05:23;19.00;71.70
37806;DHT22;25082;50.870;0.022;2023-05-10T11:08:32;19.10;71.80
37806;DHT22;25082;50.870;0.022;2023-05-10T11:10:38;19.10;72.00
37806;DHT22;25082;50.870;0.022;2023-05-10T11:15:40;19.10;72.20
37806;DHT22;25082;50.870;0.022;2023-05-10T11:18:18;19.10;72.20
37806;DHT22;25082;50.870;0.022;2023-05-10T11:20:44;19.10;72.30
37806;DHT22;25082;50.870;0.022;2023-05-10T11:23:15;19.10;72.30
37806;DHT22;25082;50.870;0.022;2023-05-10T11:25:43;19.10;72.40
37806;DHT22;25082;50.870;0.022;2023-05-10T11:28:09;19.10;72.30
37806;DHT22;25082;50.870;0.022;2023-05-10T11:30:36;19.20;72.30
37806;DHT22;25082;50.870;0.022;2023-05-10T11:33:02;19.20;72.40
37806;DHT22;25082;50.870;0.022;2023-05-10T11:35:28;19.20;72.40
37806;DHT22;25082;50.870;0.022;2023-05-10T11:37:53;19.10;72.50
37806;DHT22;25082;50.870;0.022;2023-05-10T11:40:21;19.10;72.60
37806;DHT22;25082;50.870;0.022;2023-05-10T11:42:46;19.10;72.60
37806;DHT22;25082;50.870;0.022;2023-05-10T11:45:12;19.20;72.60
37806;DHT22;25082;50.870;0.022;2023-05-10T11:47:38;19.20;72.60
37806;DHT22;25082;50.870;0.022;2023-05-10T11:50:04;19.20;72.60
37806;DHT22;25082;50.870;0.022;2023-05-10T11:52:35;19.20;72.40
37806;DHT22;25082;50.870;0.022;2023-05-10T11:55:01;19.20;72.40
37806;DHT22;25082;50.870;0.022;2023-05-10T11:57:27;19.20;72.40
37806;DHT22;25082;50.870;0.022;2023-05-10T11:59:54;19.20;72.40
37806;DHT22;25082;50.870;0.022;2023-05-10T12:02:23;19.20;72.40
37806;DHT22;25082;50.870;0.022;2023-05-10T12:04:49;19.20;72.40
37806;DHT22;25082;50.870;0.022;2023-05-10T12:07:15;19.20;72.30
37806;DHT22;25082;50.870;0.022;2023-05-10T12:09:44;19.20;72.30
37806;DHT22;25082;50.870;0.022;2023-05-10T12:12:16;19.20;72.30
37806;DHT22;25082;50.870;0.022;2023-05-10T12:14:41;19.20;72.40
37806;DHT22;25082;50.870;0.022;2023-05-10T12:17:11;19.20;72.40
37806;DHT22;25082;50.870;0.022;2023-05-10T12:19:37;19.20;72.40
37806;DHT22;25082;50.870;0.022;2023-05-10T12:22:06;19.20;72.30
37806;DHT22;25082;50.870;0.022;2023-05-10T12:24:35;19.20;72.30
37806;DHT22;25082;50.870;0.022;2023-05-10T12:27:04;19.30;72.40
37806;DHT22;25082;50.870;0.022;2023-05-10T12:29:30;19.30;72.40
37806;DHT22;25082;50.870;0.022;2023-05-10T12:31:56;19.30;72.30
37806;DHT22;25082;50.870;0.022;2023-05-10T12:34:26;19.30;72.30
37806;DHT22;25082;50.870;0.022;2023-05-10T12:36:52;19.30;72.20
37806;DHT22;25082;50.870;0.022;2023-05-10T12:39:18;19.40;72.20
37806;DHT22;25082;50.870;0.022;2023-05-10T12:41:44;19.40;72.20
37806;DHT22;25082;50.870;0.022;2023-05-10T12:44:10;19.40;72.30
37806;DHT22;25082;50.870;0.022;2023-05-10T12:46:36;19.40;72.30
37806;DHT22;25082;50.870;0.022;2023-05-10T12:49:01;19.40;72.30
37806;DHT22;25082;50.870;0.022;2023-05-10T12:51:27;19.40;72.30
37806;DHT22;25082;50.870;0.022;2023-05-10T12:53:53;19.40;72.30
37806;DHT22;25082;50.870;0.022;2023-05-10T12:56:19;19.40;72.30
37806;DHT22;25082;50.870;0.022;2023-05-10T12:58:45;19.40;72.10
37806;DHT22;25082;50.870;0.022;2023-05-10T13:01:14;19.50;72.50
37806;DHT22;25082;50.870;0.022;2023-05-10T13:03:40;19.50;72.90
37806;DHT22;25082;50.870;0.022;2023-05-10T13:06:06;19.50;73.70
37806;DHT22;25082;50.870;0.022;2023-05-10T13:08:34;19.50;74.10
37806;DHT22;25082;50.870;0.022;2023-05-10T13:11:01;19.50;74.60
37806;DHT22;25082;50.870;0.022;2023-05-10T13:13:27;19.50;75.00
37806;DHT22;25082;50.870;0.022;2023-05-10T13:15:52;19.50;75.30
37806;DHT22;25082;50.870;0.022;2023-05-10T13:18:18;19.50;75.50
37806;DHT22;25082;50.870;0.022;2023-05-10T13:20:44;19.50;75.50
37806;DHT22;25082;50.870;0.022;2023-05-10T13:23:10;19.50;75.70
37806;DHT22;25082;50.870;0.022;2023-05-10T13:25:35;19.60;76.30
37806;DHT22;25082;50.870;0.022;2023-05-10T13:28:02;19.60;75.20
37806;DHT22;25082;50.870;0.022;2023-05-10T13:30:27;19.50;74.70
37806;DHT22;25082;50.870;0.022;2023-05-10T13:32:54;19.50;74.40
37806;DHT22;25082;50.870;0.022;2023-05-10T13:35:20;19.60;74.30
37806;DHT22;25082;50.870;0.022;2023-05-10T13:37:45;19.60;74.80
37806;DHT22;25082;50.870;0.022;2023-05-10T13:40:11;19.60;74.10
37806;DHT22;25082;50.870;0.022;2023-05-10T13:42:37;19.60;74.20
37806;DHT22;25082;50.870;0.022;2023-05-10T13:45:03;19.60;74.10
37806;DHT22;25082;50.870;0.022;2023-05-10T13:47:29;19.50;74.00
37806;DHT22;25082;50.870;0.022;2023-05-10T13:49:55;19.50;73.90
37806;DHT22;25082;50.870;0.022;2023-05-10T13:52:22;19.50;73.80
37806;DHT22;25082;50.870;0.022;2023-05-10T13:54:48;19.50;73.70
37806;DHT22;25082;50.870;0.022;2023-05-10T13:57:14;19.50;73.60
37806;DHT22;25082;50.870;0.022;2023-05-10T13:59:42;19.50;73.60
37806;DHT22;25082;50.870;0.022;2023-05-10T14:02:07;19.60;73.60
37806;DHT22;25082;50.870;0.022;2023-05-10T14:04:33;19.50;73.40
37806;DHT22;25082;50.870;0.022;2023-05-10T14:07:00;19.50;73.30
37806;DHT22;25082;50.870;0.022;2023-05-10T14:09:26;19.50;73.30
37806;DHT22;25082;50.870;0.022;2023-05-10T14:11:52;19.50;73.30
37806;DHT22;25082;50.870;0.022;2023-05-10T14:14:17;19.50;73.20
37806;DHT22;25082;50.870;0.022;2023-05-10T14:16:44;19.50;73.20
37806;DHT22;25082;50.870;0.022;2023-05-10T14:19:10;19.50;73.00
37806;DHT22;25082;50.870;0.022;2023-05-10T14:21:36;19.50;73.00
37806;DHT22;25082;50.870;0.022;2023-05-10T14:24:01;19.50;73.00
37806;DHT22;25082;50.870;0.022;2023-05-10T14:26:27;19.50;73.00
37806;DHT22;25082;50.870;0.022;2023-05-10T14:28:53;19.50;73.00
37806;DHT22;25082;50.870;0.022;2023-05-10T14:31:18;19.60;73.00
37806;DHT22;25082;50.870;0.022;2023-05-10T14:33:48;19.60;73.00
37806;DHT22;25082;50.870;0.022;2023-05-10T14:36:14;19.60;73.00
37806;DHT22;25082;50.870;0.022;2023-05-10T14:38:40;19.60;72.90
37806;DHT22;25082;50.870;0.022;2023-05-10T14:41:05;19.60;72.90
37806;DHT22;25082;50.870;0.022;2023-05-10T14:43:31;19.60;72.90
37806;DHT22;25082;50.870;0.022;2023-05-10T14:45:57;19.60;72.90
37806;DHT22;25082;50.870;0.022;2023-05-10T14:48:22;19.60;72.90
37806;DHT22;25082;50.870;0.022;2023-05-10T14:50:48;19.70;72.90
37806;DHT22;25082;50.870;0.022;2023-05-10T14:53:15;19.70;73.00
37806;DHT22;25082;50.870;0.022;2023-05-10T14:55:40;19.60;72.90
37806;DHT22;25082;50.870;0.022;2023-05-10T14:58:06;19.70;72.90
37806;DHT22;25082;50.870;0.022;2023-05-10T15:00:32;19.70;72.80
37806;DHT22;25082;50.870;0.022;2023-05-10T15:02:57;19.70;72.80
37806;DHT22;25082;50.870;0.022;2023-05-10T15:05:23;19.70;73.10
37806;DHT22;25082;50.870;0.022;2023-05-10T15:07:48;19.70;72.90
37806;DHT22;25082;50.870;0.022;2023-05-10T15:10:14;19.70;73.00
37806;DHT22;25082;50.870;0.022;2023-05-10T15:12:40;19.70;73.10
37806;DHT22;25082;50.870;0.022;2023-05-10T15:15:05;19.80;73.20
37806;DHT22;25082;50.870;0.022;2023-05-10T15:17:31;19.80;73.30
37806;DHT22;25082;50.870;0.022;2023-05-10T15:19:57;19.80;73.50
37806;DHT22;25082;50.870;0.022;2023-05-10T15:22:22;19.80;73.80
37806;DHT22;25082;50.870;0.022;2023-05-10T15:24:48;19.80;74.10
37806;DHT22;25082;50.870;0.022;2023-05-10T15:27:13;19.80;74.10
37806;DHT22;25082;50.870;0.022;2023-05-10T15:29:39;19.80;74.20
37806;DHT22;25082;50.870;0.022;2023-05-10T15:32:05;19.90;74.30
37806;DHT22;25082;50.870;0.022;2023-05-10T15:34:30;19.90;74.20
37806;DHT22;25082;50.870;0.022;2023-05-10T15:36:56;19.90;74.30
37806;DHT22;25082;50.870;0.022;2023-05-10T15:39:22;19.90;74.30
37806;DHT22;25082;50.870;0.022;2023-05-10T15:41:47;19.90;74.40
37806;DHT22;25082;50.870;0.022;2023-05-10T15:44:14;19.90;74.40
37806;DHT22;25082;50.870;0.022;2023-05-10T15:46:39;19.90;74.30
37806;DHT22;25082;50.870;0.022;2023-05-10T15:49:05;19.90;74.20
37806;DHT22;25082;50.870;0.022;2023-05-10T15:51:31;19.90;74.10
37806;DHT22;25082;50.870;0.022;2023-05-10T15:53:58;19.90;74.00
37806;DHT22;25082;50.870;0.022;2023-05-10T15:56:23;19.90;73.60
37806;DHT22;25082;50.870;0.022;2023-05-10T15:58:49;19.80;73.40
37806;DHT22;25082;50.870;0.022;2023-05-10T16:01:15;19.80;73.40